Terminal Aerodrome Forecast
Issued by NWS

Home | Current Version | Previous Version | Text Only | Print | Product List | Glossary On
Versions: 1 2 3 4 5 6 7 8 9 10 11 12 13 14 15 16 17 18 19 20
479
FTUS41 KPBZ 111140
TAFAGC
TAF
KAGC 111140Z 1112/1212 17003KT 2SM -SN OVC025
     FM111500 15006KT P6SM -SN OVC050
     FM120100 14007KT 5SM -RASN OVC035
     FM120700 19008KT 5SM -RA OVC015=

USA.gov is the U.S. government's official web portal to all federal, state and local government web resources and services.